createdAt,value
2023-01-29T00:00:29.979Z,71.26
2023-01-29T00:03:32.892Z,71.26
2023-01-29T00:06:36.772Z,71.39
2023-01-29T00:09:40.000Z,71.40
2023-01-29T00:12:42.535Z,71.22
2023-01-29T00:15:53.990Z,71.16
2023-01-29T00:18:56.617Z,71.29
2023-01-29T00:22:00.484Z,71.34
2023-01-29T00:25:03.135Z,71.45
2023-01-29T00:28:06.127Z,71.39
2023-01-29T00:31:09.666Z,71.65
2023-01-29T00:34:12.235Z,71.65
2023-01-29T00:37:16.173Z,71.69
2023-01-29T00:40:19.107Z,71.45
2023-01-29T00:43:39.147Z,71.45
2023-01-29T00:46:41.734Z,71.64
2023-01-29T00:49:44.260Z,71.60
2023-01-29T00:52:49.610Z,71.54
2023-01-29T00:55:52.149Z,71.40
2023-01-29T00:58:54.702Z,71.63
2023-01-29T01:02:14.724Z,71.11
2023-01-29T01:05:18.788Z,70.96
2023-01-29T01:08:40.439Z,71.51
2023-01-29T01:11:42.956Z,71.17
2023-01-29T01:14:46.036Z,71.29
2023-01-29T01:17:49.565Z,71.38
2023-01-29T01:20:57.821Z,71.21
2023-01-29T01:24:01.777Z,71.14
2023-01-29T01:27:04.376Z,71.19
2023-01-29T01:30:09.611Z,70.58
2023-01-29T01:33:12.194Z,70.65
2023-01-29T01:36:15.840Z,70.52
2023-01-29T01:39:19.715Z,70.48
2023-01-29T01:42:22.333Z,70.35
2023-01-29T01:45:26.914Z,70.13
2023-01-29T01:48:29.528Z,69.99
2023-01-29T01:51:32.627Z,70.29
2023-01-29T01:54:36.500Z,70.28
2023-01-29T01:57:39.073Z,70.16
2023-01-29T02:00:41.668Z,70.11
2023-01-29T02:04:03.098Z,70.34
2023-01-29T02:07:23.399Z,70.10
2023-01-29T02:10:27.321Z,70.36
2023-01-29T02:13:29.845Z,70.61
2023-01-29T02:16:33.109Z,70.82
2023-01-29T02:19:40.611Z,71.08
2023-01-29T02:22:47.230Z,70.87
2023-01-29T02:26:21.414Z,71.32
2023-01-29T02:29:28.708Z,71.24
2023-01-29T02:32:32.390Z,71.00
2023-01-29T02:35:37.413Z,71.55
2023-01-29T02:38:42.774Z,71.69
2023-01-29T02:41:47.029Z,71.15
2023-01-29T02:44:53.245Z,71.29
2023-01-29T02:47:58.481Z,71.55
2023-01-29T02:51:03.510Z,71.53
2023-01-29T02:54:08.704Z,71.61
2023-01-29T02:57:14.752Z,71.59
2023-01-29T03:00:19.699Z,71.73
2023-01-29T03:03:24.484Z,71.89
2023-01-29T03:06:28.517Z,71.89
2023-01-29T03:09:34.042Z,72.00
2023-01-29T03:12:36.733Z,71.86
2023-01-29T03:15:42.465Z,72.19
2023-01-29T03:18:48.653Z,72.33
2023-01-29T03:21:55.239Z,72.07
2023-01-29T03:25:16.552Z,72.17
2023-01-29T03:28:36.912Z,72.13
2023-01-29T03:31:58.653Z,71.95
2023-01-29T03:35:03.924Z,72.43
2023-01-29T03:38:09.750Z,72.15
2023-01-29T03:41:19.385Z,72.28
2023-01-29T03:44:26.387Z,72.58
2023-01-29T03:47:34.496Z,72.68
2023-01-29T03:50:39.796Z,72.61
2023-01-29T03:53:44.158Z,72.50
2023-01-29T03:56:54.430Z,72.51
2023-01-29T03:59:58.884Z,72.48
2023-01-29T04:03:05.381Z,72.33
2023-01-29T04:06:12.394Z,72.64
2023-01-29T04:09:16.895Z,72.53
2023-01-29T04:12:21.155Z,72.66
2023-01-29T04:15:23.835Z,72.49
2023-01-29T04:18:27.779Z,72.78
2023-01-29T04:21:31.763Z,72.66
2023-01-29T04:24:34.367Z,72.40
2023-01-29T04:27:41.625Z,72.65
2023-01-29T04:30:46.615Z,72.59
2023-01-29T04:33:53.855Z,72.58
2023-01-29T04:37:03.571Z,72.31
2023-01-29T04:40:13.972Z,72.51
2023-01-29T04:43:19.062Z,72.53
2023-01-29T04:46:23.527Z,72.59
2023-01-29T04:49:34.292Z,72.42
2023-01-29T04:52:40.378Z,72.64
2023-01-29T04:55:44.856Z,72.93
2023-01-29T04:58:48.494Z,72.86
2023-01-29T05:01:51.037Z,72.59
2023-01-29T05:04:55.085Z,72.75
2023-01-29T05:07:57.682Z,72.50
2023-01-29T05:11:00.427Z,73.02
2023-01-29T05:14:03.758Z,72.78
2023-01-29T05:17:08.677Z,72.90
2023-01-29T05:20:13.488Z,72.70
2023-01-29T05:23:17.068Z,72.72
2023-01-29T05:26:37.193Z,72.74
2023-01-29T05:29:40.163Z,72.59
2023-01-29T05:32:42.741Z,72.51
2023-01-29T05:35:46.988Z,72.75
2023-01-29T05:38:49.809Z,72.55
2023-01-29T05:41:52.383Z,72.66
2023-01-29T05:44:55.040Z,72.65
2023-01-29T05:47:57.939Z,72.67
2023-01-29T05:51:02.299Z,72.99
2023-01-29T05:54:05.088Z,72.77
2023-01-29T05:57:07.624Z,72.73
2023-01-29T06:00:13.029Z,72.68
2023-01-29T06:03:16.052Z,72.91
2023-01-29T06:06:19.991Z,72.80
2023-01-29T06:09:22.573Z,72.66
2023-01-29T06:12:25.148Z,72.69
2023-01-29T06:15:27.733Z,72.65
2023-01-29T06:18:30.258Z,72.71
2023-01-29T06:21:34.176Z,72.69
2023-01-29T06:24:37.264Z,73.05
2023-01-29T06:27:39.832Z,72.77
2023-01-29T06:30:42.450Z,72.90
2023-01-29T06:33:45.035Z,72.79
2023-01-29T06:36:48.953Z,72.89
2023-01-29T06:39:51.527Z,72.80
2023-01-29T06:42:54.114Z,72.90
2023-01-29T06:45:57.503Z,72.87
2023-01-29T06:49:01.055Z,72.73
2023-01-29T06:52:05.128Z,72.92
2023-01-29T06:55:08.580Z,72.84
2023-01-29T06:58:12.633Z,72.85
2023-01-29T07:01:29.288Z,73.07
2023-01-29T07:04:37.702Z,72.73
2023-01-29T07:07:41.591Z,72.95
2023-01-29T07:10:44.162Z,73.16
2023-01-29T07:13:46.753Z,73.08
2023-01-29T07:16:49.326Z,72.86
2023-01-29T07:19:51.857Z,73.28
2023-01-29T07:22:55.747Z,72.91
2023-01-29T07:26:01.004Z,72.96
2023-01-29T07:29:03.615Z,73.03
2023-01-29T07:32:07.693Z,73.11
2023-01-29T07:35:10.570Z,73.18
2023-01-29T07:38:14.506Z,73.14
2023-01-29T07:41:17.073Z,73.02
2023-01-29T07:44:19.599Z,73.03
2023-01-29T07:47:22.167Z,73.02
2023-01-29T07:50:24.928Z,73.16
2023-01-29T07:53:29.070Z,73.16
2023-01-29T07:56:31.649Z,73.41
2023-01-29T07:59:34.234Z,73.38
2023-01-29T08:02:36.876Z,73.51
2023-01-29T08:05:39.503Z,73.42
2023-01-29T08:08:43.407Z,73.58
2023-01-29T08:11:45.935Z,73.66
2023-01-29T08:14:48.533Z,73.48
2023-01-29T08:17:57.769Z,73.76
2023-01-29T08:21:01.795Z,73.79
2023-01-29T08:24:06.484Z,73.71
2023-01-29T08:27:09.107Z,73.93
2023-01-29T08:30:12.954Z,74.12
2023-01-29T08:33:17.564Z,74.09
2023-01-29T08:36:20.341Z,73.91
2023-01-29T08:39:24.278Z,74.10
2023-01-29T08:42:26.890Z,73.89
2023-01-29T08:45:30.085Z,74.21
2023-01-29T08:48:33.211Z,74.28
2023-01-29T08:51:35.796Z,74.33
2023-01-29T08:54:39.737Z,74.30
2023-01-29T08:57:42.325Z,74.40
2023-01-29T09:00:45.038Z,74.28
2023-01-29T09:03:47.640Z,74.24
2023-01-29T09:06:50.236Z,74.57
2023-01-29T09:09:55.250Z,74.63
2023-01-29T09:12:57.770Z,74.30
2023-01-29T09:16:01.102Z,74.47
2023-01-29T09:19:03.687Z,74.39
2023-01-29T09:22:06.305Z,74.63
2023-01-29T09:25:10.735Z,74.72
2023-01-29T09:28:13.349Z,74.55
2023-01-29T09:31:15.972Z,74.55
2023-01-29T09:34:18.626Z,74.79
2023-01-29T09:37:23.133Z,74.68
2023-01-29T09:40:27.947Z,74.87
2023-01-29T09:43:37.196Z,74.89
2023-01-29T09:46:41.026Z,75.04
2023-01-29T09:49:46.703Z,75.18
2023-01-29T09:52:51.635Z,75.17
2023-01-29T09:55:57.375Z,75.00
2023-01-29T09:59:01.658Z,75.00
2023-01-29T10:02:09.903Z,75.09
2023-01-29T10:05:22.265Z,74.87
2023-01-29T10:08:42.359Z,75.14
2023-01-29T10:11:47.665Z,75.15
2023-01-29T10:14:54.343Z,74.93
2023-01-29T10:18:07.359Z,75.57
2023-01-29T10:21:18.016Z,75.39
2023-01-29T10:24:25.299Z,75.27
2023-01-29T10:27:32.935Z,75.46
2023-01-29T10:30:38.143Z,75.14
2023-01-29T10:34:01.007Z,75.31
2023-01-29T10:37:09.359Z,75.64
2023-01-29T10:40:19.825Z,75.59
2023-01-29T10:43:27.920Z,75.56
2023-01-29T10:46:37.728Z,75.75
2023-01-29T10:49:50.227Z,75.79
2023-01-29T10:53:04.697Z,75.92
2023-01-29T10:56:22.351Z,75.89
2023-01-29T10:59:37.770Z,76.16
2023-01-29T11:02:44.812Z,76.09
2023-01-29T11:05:51.424Z,76.41
2023-01-29T11:08:55.414Z,76.56
2023-01-29T11:11:58.884Z,76.62
2023-01-29T11:15:04.151Z,76.42
2023-01-29T11:18:10.569Z,76.66
2023-01-29T11:21:13.141Z,76.43
2023-01-29T11:24:17.514Z,76.42
2023-01-29T11:27:25.722Z,76.58
2023-01-29T11:30:30.031Z,76.80
2023-01-29T11:33:32.643Z,76.48
2023-01-29T11:36:37.983Z,76.48
2023-01-29T11:39:40.514Z,76.33
2023-01-29T11:42:43.080Z,76.56
2023-01-29T11:45:47.094Z,76.71
2023-01-29T11:48:51.540Z,76.42
2023-01-29T11:51:54.336Z,76.37
2023-01-29T11:54:58.268Z,76.28
2023-01-29T11:58:02.875Z,76.30
2023-01-29T12:01:06.923Z,76.36
2023-01-29T12:04:16.218Z,76.31
2023-01-29T12:07:19.175Z,76.21
2023-01-29T12:10:32.743Z,76.21
2023-01-29T12:13:36.042Z,76.45
2023-01-29T12:16:41.138Z,76.43
2023-01-29T12:19:45.513Z,76.29
2023-01-29T12:22:51.369Z,76.26
2023-01-29T12:25:58.015Z,76.20
2023-01-29T12:29:25.172Z,76.27
2023-01-29T12:32:33.135Z,76.18
2023-01-29T12:35:37.554Z,76.33
2023-01-29T12:38:40.956Z,75.98
2023-01-29T12:41:46.127Z,75.74
2023-01-29T12:44:50.803Z,75.82
2023-01-29T12:47:56.489Z,75.79
2023-01-29T12:51:02.335Z,75.48
2023-01-29T12:54:06.100Z,75.80
2023-01-29T12:57:10.991Z,75.74
2023-01-29T13:00:15.528Z,75.97
2023-01-29T13:03:22.018Z,75.96
2023-01-29T13:06:27.413Z,75.61
2023-01-29T13:09:31.026Z,75.66
2023-01-29T13:12:33.572Z,75.81
2023-01-29T13:15:36.782Z,75.53
2023-01-29T13:18:44.113Z,75.64
2023-01-29T13:21:46.657Z,75.51
2023-01-29T13:24:58.758Z,75.68
2023-01-29T13:28:06.473Z,75.37
2023-01-29T13:31:21.705Z,75.88
2023-01-29T13:34:26.372Z,75.34
2023-01-29T13:37:31.772Z,75.56
2023-01-29T13:40:35.471Z,75.70
2023-01-29T13:43:39.247Z,75.27
2023-01-29T13:46:42.182Z,75.38
2023-01-29T13:49:46.985Z,75.66
2023-01-29T13:52:54.307Z,75.34
2023-01-29T13:55:56.870Z,75.42
2023-01-29T13:58:59.666Z,75.64
2023-01-29T14:02:04.728Z,75.83
2023-01-29T14:05:42.552Z,76.05
2023-01-29T14:08:45.252Z,75.61
2023-01-29T14:11:48.975Z,75.58
2023-01-29T14:14:52.801Z,75.69
2023-01-29T14:17:56.969Z,76.32
2023-01-29T14:21:04.976Z,76.44
2023-01-29T14:24:12.695Z,76.24
2023-01-29T14:27:20.373Z,76.72
2023-01-29T14:30:28.830Z,76.87
2023-01-29T14:33:35.479Z,76.32
2023-01-29T14:36:42.659Z,76.53
2023-01-29T14:39:45.933Z,76.62
2023-01-29T14:42:55.975Z,77.01
2023-01-29T14:45:58.516Z,77.11
2023-01-29T14:49:01.063Z,77.06
2023-01-29T14:52:05.028Z,77.12
2023-01-29T14:55:08.896Z,77.47
2023-01-29T14:58:13.799Z,77.63
2023-01-29T15:01:20.265Z,77.45
2023-01-29T15:04:24.574Z,77.54
2023-01-29T15:07:31.727Z,78.06
2023-01-29T15:10:41.251Z,77.76
2023-01-29T15:13:46.304Z,77.72
2023-01-29T15:16:53.104Z,78.43
2023-01-29T15:19:56.742Z,78.59
2023-01-29T15:23:00.860Z,78.98
2023-01-29T15:26:05.440Z,78.94
2023-01-29T15:29:07.976Z,79.26
2023-01-29T15:32:14.530Z,79.20
2023-01-29T15:35:25.840Z,79.51
2023-01-29T15:38:29.822Z,79.46
2023-01-29T15:41:32.363Z,80.04
2023-01-29T15:44:34.988Z,80.23
2023-01-29T15:47:37.612Z,80.62
2023-01-29T15:50:41.309Z,80.36
2023-01-29T15:53:46.945Z,80.93
2023-01-29T15:56:51.254Z,80.88
2023-01-29T15:59:54.773Z,80.91
2023-01-29T16:02:57.596Z,81.17
2023-01-29T16:06:00.245Z,81.33
2023-01-29T16:09:04.595Z,81.16
2023-01-29T16:12:07.496Z,81.54
2023-01-29T16:15:24.334Z,81.00
2023-01-29T16:18:30.197Z,81.08
2023-01-29T16:21:33.911Z,81.09
2023-01-29T16:24:38.317Z,81.33
2023-01-29T16:27:43.174Z,81.32
2023-01-29T16:30:45.732Z,81.22
2023-01-29T16:33:49.510Z,81.49
2023-01-29T16:36:53.511Z,81.59
2023-01-29T16:39:58.332Z,81.77
2023-01-29T16:43:31.351Z,81.84
2023-01-29T16:46:37.172Z,81.41
2023-01-29T16:49:44.784Z,81.37
2023-01-29T16:52:57.524Z,81.73
2023-01-29T16:56:04.901Z,81.83
2023-01-29T16:59:07.595Z,81.38
2023-01-29T17:02:14.544Z,81.94
2023-01-29T17:05:20.563Z,81.78
2023-01-29T17:08:24.639Z,81.87
2023-01-29T17:11:32.734Z,81.78
2023-01-29T17:14:35.940Z,81.93
2023-01-29T17:17:38.567Z,81.91
2023-01-29T17:20:41.154Z,81.92
2023-01-29T17:23:43.723Z,81.89
2023-01-29T17:26:47.683Z,81.94
2023-01-29T17:29:52.060Z,81.91
2023-01-29T17:32:55.209Z,82.12
2023-01-29T17:35:57.757Z,81.95
2023-01-29T17:39:01.100Z,82.31
2023-01-29T17:42:05.205Z,82.01
2023-01-29T17:45:08.796Z,82.46
2023-01-29T17:48:13.203Z,81.93
2023-01-29T17:51:16.610Z,82.12
2023-01-29T17:54:19.142Z,82.42
2023-01-29T17:57:23.067Z,82.56
2023-01-29T18:00:25.850Z,82.70
2023-01-29T18:03:28.471Z,82.55
2023-01-29T18:06:31.028Z,82.69
2023-01-29T18:09:33.553Z,82.65
2023-01-29T18:12:37.428Z,83.15
2023-01-29T18:15:40.093Z,83.17
2023-01-29T18:18:42.701Z,83.24
2023-01-29T18:21:45.283Z,83.11
2023-01-29T18:24:47.879Z,83.48
2023-01-29T18:27:51.766Z,83.34
2023-01-29T18:30:54.333Z,83.77
2023-01-29T18:33:56.966Z,83.77
2023-01-29T18:37:00.215Z,83.82
2023-01-29T18:40:02.798Z,84.09
2023-01-29T18:43:06.671Z,84.29
2023-01-29T18:46:09.321Z,84.17
2023-01-29T18:49:11.878Z,84.39
2023-01-29T18:52:14.460Z,84.61
2023-01-29T18:55:17.512Z,84.53
2023-01-29T18:58:26.624Z,84.84
2023-01-29T19:01:36.421Z,84.65
2023-01-29T19:04:38.951Z,84.58
2023-01-29T19:07:41.498Z,85.15
2023-01-29T19:10:44.320Z,84.98
2023-01-29T19:13:49.736Z,85.42
2023-01-29T19:16:52.306Z,85.12
2023-01-29T19:19:56.491Z,85.13
2023-01-29T19:22:59.500Z,85.30
2023-01-29T19:26:02.062Z,85.36
2023-01-29T19:29:07.493Z,85.59
2023-01-29T19:32:11.572Z,85.58
2023-01-29T19:35:14.161Z,85.65
2023-01-29T19:38:20.918Z,85.67
2023-01-29T19:41:23.528Z,85.96
2023-01-29T19:44:27.496Z,85.90
2023-01-29T19:47:30.105Z,85.86
2023-01-29T19:50:32.718Z,86.03
2023-01-29T19:53:35.522Z,85.85
2023-01-29T19:56:38.053Z,86.17
2023-01-29T19:59:45.593Z,86.30
2023-01-29T20:02:48.499Z,86.16
2023-01-29T20:05:51.062Z,86.50
2023-01-29T20:08:53.625Z,86.21
2023-01-29T20:11:56.225Z,86.74
2023-01-29T20:15:00.151Z,86.37
2023-01-29T20:18:03.822Z,86.53
2023-01-29T20:21:07.154Z,86.76
2023-01-29T20:24:12.360Z,86.71
2023-01-29T20:27:14.958Z,87.30
2023-01-29T20:30:19.565Z,86.86
2023-01-29T20:33:22.309Z,87.62
2023-01-29T20:36:24.863Z,87.26
2023-01-29T20:39:27.388Z,87.35
2023-01-29T20:42:29.905Z,87.44
2023-01-29T20:45:35.896Z,87.63
2023-01-29T20:48:38.579Z,87.78
2023-01-29T20:51:41.139Z,87.43
2023-01-29T20:54:43.835Z,87.85
2023-01-29T20:57:46.547Z,87.43
2023-01-29T21:01:10.689Z,88.16
2023-01-29T21:04:13.269Z,87.82
2023-01-29T21:07:15.856Z,87.67
2023-01-29T21:10:18.779Z,88.23
2023-01-29T21:13:21.508Z,88.54
2023-01-29T21:16:26.915Z,88.82
2023-01-29T21:19:30.820Z,88.23
2023-01-29T21:22:33.361Z,88.76
2023-01-29T21:25:35.962Z,88.70
2023-01-29T21:28:38.543Z,88.59
2023-01-29T21:31:42.544Z,88.50
2023-01-29T21:34:45.189Z,88.22
2023-01-29T21:37:47.740Z,88.47
2023-01-29T21:40:50.270Z,88.21
2023-01-29T21:43:52.850Z,88.14
2023-01-29T21:46:56.812Z,87.93
2023-01-29T21:49:59.372Z,87.78
2023-01-29T21:53:02.014Z,87.75
2023-01-29T21:56:05.039Z,87.62
2023-01-29T21:59:07.630Z,87.57
2023-01-29T22:02:13.566Z,87.62
2023-01-29T22:05:19.640Z,87.35
2023-01-29T22:08:25.484Z,87.32
2023-01-29T22:11:28.330Z,87.45
2023-01-29T22:14:30.906Z,87.15
2023-01-29T22:17:35.221Z,87.13
2023-01-29T22:20:37.919Z,87.18
2023-01-29T22:23:40.513Z,87.13
2023-01-29T22:26:44.159Z,87.29
2023-01-29T22:29:46.829Z,86.95
2023-01-29T22:32:51.005Z,87.46
2023-01-29T22:35:54.611Z,87.07
2023-01-29T22:38:57.178Z,87.16
2023-01-29T22:41:59.763Z,87.06
2023-01-29T22:45:02.339Z,87.03
2023-01-29T22:48:08.188Z,87.05
2023-01-29T22:51:10.833Z,86.98
2023-01-29T22:54:15.363Z,86.99
2023-01-29T22:57:17.951Z,87.11
2023-01-29T23:00:21.321Z,87.19
2023-01-29T23:03:25.328Z,87.16
2023-01-29T23:06:27.860Z,87.05
2023-01-29T23:09:30.435Z,87.02
2023-01-29T23:12:32.995Z,86.98
2023-01-29T23:15:35.573Z,86.92
2023-01-29T23:18:39.669Z,86.93
2023-01-29T23:21:42.189Z,86.78
2023-01-29T23:24:44.764Z,86.68
2023-01-29T23:27:46.719Z,86.72
2023-01-29T23:30:51.964Z,86.96
2023-01-29T23:33:56.265Z,86.56
2023-01-29T23:36:58.933Z,86.70
2023-01-29T23:40:01.552Z,86.63
2023-01-29T23:43:04.122Z,86.59
2023-01-29T23:46:07.134Z,86.42
2023-01-29T23:49:11.021Z,86.63
2023-01-29T23:52:13.603Z,86.63
2023-01-29T23:55:16.219Z,86.51
2023-01-29T23:58:18.804Z,86.36
